sensor_id;sensor_type;location;lat;lon;timestamp;P1;durP1;ratioP1;P2;durP2;ratioP2
28988;SDS011;16089;59.952;10.818;2023-04-15T00:01:57;1.25;;;0.35;;
28988;SDS011;16089;59.952;10.818;2023-04-15T00:04:23;1.15;;;0.40;;
28988;SDS011;16089;59.952;10.818;2023-04-15T00:06:50;0.85;;;0.40;;
28988;SDS011;16089;59.952;10.818;2023-04-15T00:09:19;1.65;;;0.30;;
28988;SDS011;16089;59.952;10.818;2023-04-15T00:11:45;1.40;;;0.40;;
28988;SDS011;16089;59.952;10.818;2023-04-15T00:14:12;0.40;;;0.30;;
28988;SDS011;16089;59.952;10.818;2023-04-15T00:16:38;0.90;;;0.30;;
28988;SDS011;16089;59.952;10.818;2023-04-15T00:19:05;0.50;;;0.30;;
28988;SDS011;16089;59.952;10.818;2023-04-15T00:21:31;0.43;;;0.30;;
28988;SDS011;16089;59.952;10.818;2023-04-15T00:23:58;0.30;;;0.25;;
28988;SDS011;16089;59.952;10.818;2023-04-15T00:26:25;0.30;;;0.30;;
28988;SDS011;16089;59.952;10.818;2023-04-15T00:28:52;0.68;;;0.40;;
28988;SDS011;16089;59.952;10.818;2023-04-15T00:31:18;0.57;;;0.32;;
28988;SDS011;16089;59.952;10.818;2023-04-15T00:33:45;1.25;;;0.40;;
28988;SDS011;16089;59.952;10.818;2023-04-15T00:36:12;1.30;;;0.55;;
28988;SDS011;16089;59.952;10.818;2023-04-15T00:38:39;0.57;;;0.40;;
28988;SDS011;16089;59.952;10.818;2023-04-15T00:41:05;1.35;;;0.40;;
28988;SDS011;16089;59.952;10.818;2023-04-15T00:43:33;0.82;;;0.50;;
28988;SDS011;16089;59.952;10.818;2023-04-15T00:45:59;0.70;;;0.40;;
28988;SDS011;16089;59.952;10.818;2023-04-15T00:48:27;1.40;;;0.65;;
28988;SDS011;16089;59.952;10.818;2023-04-15T00:50:54;0.75;;;0.40;;
28988;SDS011;16089;59.952;10.818;2023-04-15T00:53:20;0.82;;;0.45;;
28988;SDS011;16089;59.952;10.818;2023-04-15T00:55:47;0.95;;;0.50;;
28988;SDS011;16089;59.952;10.818;2023-04-15T00:58:13;0.88;;;0.50;;
28988;SDS011;16089;59.952;10.818;2023-04-15T01:00:42;1.35;;;0.50;;
28988;SDS011;16089;59.952;10.818;2023-04-15T01:03:08;2.60;;;0.52;;
28988;SDS011;16089;59.952;10.818;2023-04-15T01:05:35;1.38;;;0.60;;
28988;SDS011;16089;59.952;10.818;2023-04-15T01:08:02;0.93;;;0.50;;
28988;SDS011;16089;59.952;10.818;2023-04-15T01:10:29;1.23;;;0.57;;
28988;SDS011;16089;59.952;10.818;2023-04-15T01:12:56;3.70;;;0.63;;
28988;SDS011;16089;59.952;10.818;2023-04-15T01:15:22;1.33;;;0.75;;
28988;SDS011;16089;59.952;10.818;2023-04-15T01:17:50;1.33;;;0.60;;
28988;SDS011;16089;59.952;10.818;2023-04-15T01:20:16;1.88;;;0.90;;
28988;SDS011;16089;59.952;10.818;2023-04-15T01:22:43;1.95;;;0.70;;
28988;SDS011;16089;59.952;10.818;2023-04-15T01:25:11;1.90;;;0.93;;
28988;SDS011;16089;59.952;10.818;2023-04-15T01:27:39;1.55;;;0.80;;
28988;SDS011;16089;59.952;10.818;2023-04-15T01:30:06;1.60;;;0.80;;
28988;SDS011;16089;59.952;10.818;2023-04-15T01:32:33;2.05;;;0.80;;
28988;SDS011;16089;59.952;10.818;2023-04-15T01:34:59;1.27;;;0.73;;
28988;SDS011;16089;59.952;10.818;2023-04-15T01:37:26;1.80;;;0.80;;
28988;SDS011;16089;59.952;10.818;2023-04-15T01:39:52;1.88;;;1.05;;
28988;SDS011;16089;59.952;10.818;2023-04-15T01:42:19;2.25;;;1.13;;
28988;SDS011;16089;59.952;10.818;2023-04-15T01:44:47;1.83;;;0.90;;
28988;SDS011;16089;59.952;10.818;2023-04-15T01:47:14;2.92;;;1.23;;
28988;SDS011;16089;59.952;10.818;2023-04-15T01:49:40;2.10;;;1.10;;
28988;SDS011;16089;59.952;10.818;2023-04-15T01:52:06;3.00;;;1.20;;
28988;SDS011;16089;59.952;10.818;2023-04-15T01:54:33;3.40;;;1.33;;
28988;SDS011;16089;59.952;10.818;2023-04-15T01:56:59;2.55;;;1.30;;
28988;SDS011;16089;59.952;10.818;2023-04-15T01:59:26;2.88;;;1.42;;
28988;SDS011;16089;59.952;10.818;2023-04-15T02:01:53;3.25;;;1.50;;
28988;SDS011;16089;59.952;10.818;2023-04-15T02:04:20;3.70;;;1.63;;
28988;SDS011;16089;59.952;10.818;2023-04-15T02:06:46;2.67;;;1.38;;
28988;SDS011;16089;59.952;10.818;2023-04-15T02:09:13;3.13;;;1.45;;
28988;SDS011;16089;59.952;10.818;2023-04-15T02:11:39;2.78;;;1.58;;
28988;SDS011;16089;59.952;10.818;2023-04-15T02:14:05;3.80;;;1.63;;
28988;SDS011;16089;59.952;10.818;2023-04-15T02:16:32;3.13;;;1.70;;
28988;SDS011;16089;59.952;10.818;2023-04-15T02:19:00;3.22;;;1.60;;
28988;SDS011;16089;59.952;10.818;2023-04-15T02:21:27;3.17;;;1.63;;
28988;SDS011;16089;59.952;10.818;2023-04-15T02:23:53;3.25;;;1.60;;
28988;SDS011;16089;59.952;10.818;2023-04-15T02:26:20;3.22;;;1.60;;
28988;SDS011;16089;59.952;10.818;2023-04-15T02:28:46;3.10;;;1.48;;
28988;SDS011;16089;59.952;10.818;2023-04-15T02:31:13;3.85;;;1.98;;
28988;SDS011;16089;59.952;10.818;2023-04-15T02:33:39;4.05;;;2.00;;
28988;SDS011;16089;59.952;10.818;2023-04-15T02:36:07;3.00;;;1.80;;
28988;SDS011;16089;59.952;10.818;2023-04-15T02:38:35;3.60;;;1.75;;
28988;SDS011;16089;59.952;10.818;2023-04-15T02:41:02;3.70;;;2.00;;
28988;SDS011;16089;59.952;10.818;2023-04-15T02:43:28;4.78;;;1.90;;
28988;SDS011;16089;59.952;10.818;2023-04-15T02:45:55;3.88;;;2.08;;
28988;SDS011;16089;59.952;10.818;2023-04-15T02:48:22;4.50;;;2.08;;
28988;SDS011;16089;59.952;10.818;2023-04-15T02:50:48;3.83;;;2.00;;
28988;SDS011;16089;59.952;10.818;2023-04-15T02:53:16;3.75;;;2.22;;
28988;SDS011;16089;59.952;10.818;2023-04-15T02:55:43;4.85;;;2.50;;
28988;SDS011;16089;59.952;10.818;2023-04-15T02:58:10;4.80;;;2.65;;
28988;SDS011;16089;59.952;10.818;2023-04-15T03:00:36;5.22;;;2.78;;
28988;SDS011;16089;59.952;10.818;2023-04-15T03:03:03;5.30;;;2.40;;
28988;SDS011;16089;59.952;10.818;2023-04-15T03:05:30;4.68;;;2.40;;
28988;SDS011;16089;59.952;10.818;2023-04-15T03:07:56;5.85;;;2.60;;
28988;SDS011;16089;59.952;10.818;2023-04-15T03:10:24;4.80;;;2.25;;
28988;SDS011;16089;59.952;10.818;2023-04-15T03:12:50;5.25;;;2.30;;
28988;SDS011;16089;59.952;10.818;2023-04-15T03:15:17;4.93;;;2.40;;
28988;SDS011;16089;59.952;10.818;2023-04-15T03:17:43;5.70;;;2.88;;
28988;SDS011;16089;59.952;10.818;2023-04-15T03:20:09;4.63;;;2.47;;
28988;SDS011;16089;59.952;10.818;2023-04-15T03:22:36;5.15;;;2.55;;
28988;SDS011;16089;59.952;10.818;2023-04-15T03:25:02;4.38;;;2.42;;
28988;SDS011;16089;59.952;10.818;2023-04-15T03:27:30;5.80;;;2.67;;
28988;SDS011;16089;59.952;10.818;2023-04-15T03:29:57;4.68;;;2.33;;
28988;SDS011;16089;59.952;10.818;2023-04-15T03:32:23;4.55;;;2.22;;
28988;SDS011;16089;59.952;10.818;2023-04-15T03:34:49;4.85;;;2.53;;
28988;SDS011;16089;59.952;10.818;2023-04-15T03:37:16;4.07;;;2.25;;
28988;SDS011;16089;59.952;10.818;2023-04-15T03:39:42;5.47;;;2.83;;
28988;SDS011;16089;59.952;10.818;2023-04-15T03:42:09;5.25;;;2.50;;
28988;SDS011;16089;59.952;10.818;2023-04-15T03:44:36;6.97;;;2.83;;
28988;SDS011;16089;59.952;10.818;2023-04-15T03:47:03;4.80;;;2.50;;
28988;SDS011;16089;59.952;10.818;2023-04-15T03:49:29;6.47;;;2.78;;
28988;SDS011;16089;59.952;10.818;2023-04-15T03:51:55;8.50;;;3.50;;
28988;SDS011;16089;59.952;10.818;2023-04-15T03:54:22;5.68;;;3.17;;
28988;SDS011;16089;59.952;10.818;2023-04-15T03:56:48;5.93;;;3.10;;
28988;SDS011;16089;59.952;10.818;2023-04-15T03:59:15;7.05;;;3.10;;
28988;SDS011;16089;59.952;10.818;2023-04-15T04:01:43;7.40;;;3.30;;
28988;SDS011;16089;59.952;10.818;2023-04-15T04:04:09;7.80;;;3.63;;
28988;SDS011;16089;59.952;10.818;2023-04-15T04:06:36;6.22;;;3.20;;
28988;SDS011;16089;59.952;10.818;2023-04-15T04:09:02;7.05;;;3.78;;
28988;SDS011;16089;59.952;10.818;2023-04-15T04:11:29;6.28;;;3.53;;
28988;SDS011;16089;59.952;10.818;2023-04-15T04:13:55;6.60;;;3.78;;
28988;SDS011;16089;59.952;10.818;2023-04-15T04:16:22;6.43;;;3.42;;
28988;SDS011;16089;59.952;10.818;2023-04-15T04:18:50;8.55;;;3.75;;
28988;SDS011;16089;59.952;10.818;2023-04-15T04:21:16;10.18;;;3.97;;
28988;SDS011;16089;59.952;10.818;2023-04-15T04:23:42;7.65;;;4.00;;
28988;SDS011;16089;59.952;10.818;2023-04-15T04:26:09;7.03;;;3.70;;
28988;SDS011;16089;59.952;10.818;2023-04-15T04:28:35;7.82;;;4.05;;
28988;SDS011;16089;59.952;10.818;2023-04-15T04:31:03;8.70;;;4.47;;
28988;SDS011;16089;59.952;10.818;2023-04-15T04:33:29;7.70;;;3.63;;
28988;SDS011;16089;59.952;10.818;2023-04-15T04:35:57;7.57;;;4.07;;
28988;SDS011;16089;59.952;10.818;2023-04-15T04:38:24;9.02;;;3.80;;
28988;SDS011;16089;59.952;10.818;2023-04-15T04:40:50;8.55;;;3.58;;
28988;SDS011;16089;59.952;10.818;2023-04-15T04:43:16;8.73;;;4.38;;
28988;SDS011;16089;59.952;10.818;2023-04-15T04:45:43;10.52;;;3.80;;
28988;SDS011;16089;59.952;10.818;2023-04-15T04:48:09;7.85;;;4.25;;
28988;SDS011;16089;59.952;10.818;2023-04-15T04:50:35;8.65;;;3.65;;
28988;SDS011;16089;59.952;10.818;2023-04-15T04:53:03;8.13;;;4.22;;
28988;SDS011;16089;59.952;10.818;2023-04-15T04:55:30;7.93;;;4.10;;
28988;SDS011;16089;59.952;10.818;2023-04-15T04:57:57;7.47;;;4.25;;
28988;SDS011;16089;59.952;10.818;2023-04-15T05:00:23;9.45;;;4.20;;
28988;SDS011;16089;59.952;10.818;2023-04-15T05:02:49;8.25;;;4.28;;
28988;SDS011;16089;59.952;10.818;2023-04-15T05:05:16;7.47;;;3.90;;
28988;SDS011;16089;59.952;10.818;2023-04-15T05:07:42;9.50;;;4.18;;
28988;SDS011;16089;59.952;10.818;2023-04-15T05:10:10;9.88;;;4.25;;
28988;SDS011;16089;59.952;10.818;2023-04-15T05:12:37;9.27;;;4.50;;
28988;SDS011;16089;59.952;10.818;2023-04-15T05:15:03;9.20;;;4.57;;
28988;SDS011;16089;59.952;10.818;2023-04-15T05:17:30;10.10;;;4.88;;
28988;SDS011;16089;59.952;10.818;2023-04-15T05:19:59;9.25;;;4.63;;
28988;SDS011;16089;59.952;10.818;2023-04-15T05:22:25;8.93;;;4.95;;
28988;SDS011;16089;59.952;10.818;2023-04-15T05:24:51;8.52;;;4.50;;
28988;SDS011;16089;59.952;10.818;2023-04-15T05:27:19;9.25;;;4.85;;
28988;SDS011;16089;59.952;10.818;2023-04-15T05:29:46;9.30;;;5.13;;
28988;SDS011;16089;59.952;10.818;2023-04-15T05:32:12;9.93;;;4.97;;
28988;SDS011;16089;59.952;10.818;2023-04-15T05:34:39;11.35;;;5.03;;
28988;SDS011;16089;59.952;10.818;2023-04-15T05:37:05;10.05;;;4.43;;
28988;SDS011;16089;59.952;10.818;2023-04-15T05:39:32;8.48;;;4.95;;
28988;SDS011;16089;59.952;10.818;2023-04-15T05:41:58;10.02;;;4.70;;
28988;SDS011;16089;59.952;10.818;2023-04-15T05:44:26;10.43;;;5.35;;
28988;SDS011;16089;59.952;10.818;2023-04-15T05:46:52;7.65;;;4.65;;
28988;SDS011;16089;59.952;10.818;2023-04-15T05:49:19;9.30;;;4.85;;
28988;SDS011;16089;59.952;10.818;2023-04-15T05:51:46;8.82;;;5.35;;
28988;SDS011;16089;59.952;10.818;2023-04-15T05:54:12;9.40;;;4.70;;
28988;SDS011;16089;59.952;10.818;2023-04-15T05:56:38;8.80;;;4.95;;
28988;SDS011;16089;59.952;10.818;2023-04-15T05:59:05;9.30;;;4.82;;
28988;SDS011;16089;59.952;10.818;2023-04-15T06:01:33;9.35;;;4.85;;
28988;SDS011;16089;59.952;10.818;2023-04-15T06:03:59;9.73;;;5.20;;
28988;SDS011;16089;59.952;10.818;2023-04-15T06:06:26;8.68;;;4.82;;
28988;SDS011;16089;59.952;10.818;2023-04-15T06:08:52;11.13;;;5.55;;
28988;SDS011;16089;59.952;10.818;2023-04-15T06:11:19;9.48;;;4.82;;
28988;SDS011;16089;59.952;10.818;2023-04-15T06:13:46;9.18;;;5.00;;
28988;SDS011;16089;59.952;10.818;2023-04-15T06:16:12;11.07;;;4.80;;
28988;SDS011;16089;59.952;10.818;2023-04-15T06:18:40;10.32;;;4.78;;
28988;SDS011;16089;59.952;10.818;2023-04-15T06:21:06;8.57;;;4.68;;
28988;SDS011;16089;59.952;10.818;2023-04-15T06:23:33;9.27;;;5.03;;
28988;SDS011;16089;59.952;10.818;2023-04-15T06:26:00;8.57;;;4.80;;
28988;SDS011;16089;59.952;10.818;2023-04-15T06:28:26;10.35;;;5.15;;
28988;SDS011;16089;59.952;10.818;2023-04-15T06:30:53;8.80;;;5.00;;
28988;SDS011;16089;59.952;10.818;2023-04-15T06:33:19;10.25;;;5.28;;
28988;SDS011;16089;59.952;10.818;2023-04-15T06:35:47;9.85;;;5.05;;
28988;SDS011;16089;59.952;10.818;2023-04-15T06:38:14;10.93;;;4.85;;
28988;SDS011;16089;59.952;10.818;2023-04-15T06:40:40;10.18;;;4.70;;
28988;SDS011;16089;59.952;10.818;2023-04-15T06:43:06;10.40;;;5.28;;
28988;SDS011;16089;59.952;10.818;2023-04-15T06:45:33;11.75;;;5.50;;
28988;SDS011;16089;59.952;10.818;2023-04-15T06:48:00;15.75;;;7.05;;
28988;SDS011;16089;59.952;10.818;2023-04-15T06:50:26;11.13;;;5.15;;
28988;SDS011;16089;59.952;10.818;2023-04-15T06:52:54;12.05;;;5.28;;
28988;SDS011;16089;59.952;10.818;2023-04-15T06:55:21;12.20;;;5.45;;
28988;SDS011;16089;59.952;10.818;2023-04-15T06:57:47;9.75;;;4.70;;
28988;SDS011;16089;59.952;10.818;2023-04-15T07:00:14;9.93;;;5.30;;
28988;SDS011;16089;59.952;10.818;2023-04-15T07:02:40;10.85;;;5.10;;
28988;SDS011;16089;59.952;10.818;2023-04-15T07:05:07;7.32;;;4.40;;
28988;SDS011;16089;59.952;10.818;2023-04-15T07:07:34;10.68;;;5.28;;
28988;SDS011;16089;59.952;10.818;2023-04-15T07:10:08;8.32;;;4.40;;
28988;SDS011;16089;59.952;10.818;2023-04-15T07:12:36;9.68;;;4.75;;
28988;SDS011;16089;59.952;10.818;2023-04-15T07:15:02;10.75;;;4.65;;
28988;SDS011;16089;59.952;10.818;2023-04-15T07:17:29;7.45;;;4.38;;
28988;SDS011;16089;59.952;10.818;2023-04-15T07:19:55;6.68;;;3.65;;
28988;SDS011;16089;59.952;10.818;2023-04-15T07:22:22;7.85;;;3.90;;
28988;SDS011;16089;59.952;10.818;2023-04-15T07:24:50;6.97;;;3.65;;
28988;SDS011;16089;59.952;10.818;2023-04-15T07:27:17;6.10;;;3.40;;
28988;SDS011;16089;59.952;10.818;2023-04-15T07:29:44;7.53;;;3.80;;
28988;SDS011;16089;59.952;10.818;2023-04-15T07:32:10;7.47;;;3.45;;
28988;SDS011;16089;59.952;10.818;2023-04-15T07:34:37;6.38;;;3.47;;
28988;SDS011;16089;59.952;10.818;2023-04-15T07:37:03;6.20;;;3.03;;
28988;SDS011;16089;59.952;10.818;2023-04-15T07:39:29;6.43;;;3.50;;
28988;SDS011;16089;59.952;10.818;2023-04-15T07:41:56;6.28;;;3.58;;
28988;SDS011;16089;59.952;10.818;2023-04-15T07:44:28;7.30;;;3.40;;
28988;SDS011;16089;59.952;10.818;2023-04-15T07:46:54;5.93;;;3.50;;
28988;SDS011;16089;59.952;10.818;2023-04-15T07:49:21;10.20;;;4.30;;
28988;SDS011;16089;59.952;10.818;2023-04-15T07:51:47;7.82;;;4.20;;
28988;SDS011;16089;59.952;10.818;2023-04-15T07:54:14;8.25;;;4.38;;
28988;SDS011;16089;59.952;10.818;2023-04-15T07:56:41;9.00;;;4.78;;
28988;SDS011;16089;59.952;10.818;2023-04-15T07:59:08;7.75;;;4.35;;
28988;SDS011;16089;59.952;10.818;2023-04-15T08:01:37;9.15;;;4.82;;
28988;SDS011;16089;59.952;10.818;2023-04-15T08:04:03;8.35;;;4.65;;
28988;SDS011;16089;59.952;10.818;2023-04-15T08:06:29;8.10;;;4.60;;
28988;SDS011;16089;59.952;10.818;2023-04-15T08:08:57;8.77;;;4.53;;
28988;SDS011;16089;59.952;10.818;2023-04-15T08:11:23;10.05;;;5.32;;
28988;SDS011;16089;59.952;10.818;2023-04-15T08:13:50;8.40;;;5.10;;
28988;SDS011;16089;59.952;10.818;2023-04-15T08:16:17;9.32;;;5.13;;
28988;SDS011;16089;59.952;10.818;2023-04-15T08:18:45;8.95;;;4.70;;
28988;SDS011;16089;59.952;10.818;2023-04-15T08:21:12;8.80;;;4.53;;
28988;SDS011;16089;59.952;10.818;2023-04-15T08:23:39;8.75;;;4.53;;
28988;SDS011;16089;59.952;10.818;2023-04-15T08:26:05;9.73;;;4.68;;
28988;SDS011;16089;59.952;10.818;2023-04-15T08:28:32;9.27;;;4.80;;
28988;SDS011;16089;59.952;10.818;2023-04-15T08:30:59;10.13;;;5.07;;
28988;SDS011;16089;59.952;10.818;2023-04-15T08:33:25;11.15;;;4.80;;
28988;SDS011;16089;59.952;10.818;2023-04-15T08:35:54;9.88;;;4.25;;
28988;SDS011;16089;59.952;10.818;2023-04-15T08:38:20;8.02;;;4.10;;
28988;SDS011;16089;59.952;10.818;2023-04-15T08:40:47;8.52;;;4.22;;
28988;SDS011;16089;59.952;10.818;2023-04-15T08:43:14;8.43;;;4.03;;
28988;SDS011;16089;59.952;10.818;2023-04-15T08:45:42;8.55;;;4.43;;
28988;SDS011;16089;59.952;10.818;2023-04-15T08:48:09;6.70;;;4.07;;
28988;SDS011;16089;59.952;10.818;2023-04-15T08:50:40;6.43;;;3.55;;
28988;SDS011;16089;59.952;10.818;2023-04-15T08:53:08;7.13;;;3.72;;
28988;SDS011;16089;59.952;10.818;2023-04-15T08:55:35;6.18;;;3.67;;
28988;SDS011;16089;59.952;10.818;2023-04-15T08:58:01;6.05;;;3.20;;
28988;SDS011;16089;59.952;10.818;2023-04-15T09:00:28;7.53;;;4.07;;
28988;SDS011;16089;59.952;10.818;2023-04-15T09:02:54;8.25;;;3.80;;
28988;SDS011;16089;59.952;10.818;2023-04-15T09:05:21;7.30;;;3.40;;
28988;SDS011;16089;59.952;10.818;2023-04-15T09:07:47;5.43;;;3.60;;
28988;SDS011;16089;59.952;10.818;2023-04-15T09:10:15;6.35;;;3.20;;
28988;SDS011;16089;59.952;10.818;2023-04-15T09:12:41;6.28;;;3.42;;
28988;SDS011;16089;59.952;10.818;2023-04-15T09:15:09;6.97;;;3.55;;
28988;SDS011;16089;59.952;10.818;2023-04-15T09:17:36;7.50;;;3.75;;
28988;SDS011;16089;59.952;10.818;2023-04-15T09:20:07;7.07;;;3.40;;
28988;SDS011;16089;59.952;10.818;2023-04-15T09:22:34;5.93;;;3.13;;
28988;SDS011;16089;59.952;10.818;2023-04-15T09:25:01;7.25;;;3.88;;
28988;SDS011;16089;59.952;10.818;2023-04-15T09:27:29;5.45;;;3.10;;
28988;SDS011;16089;59.952;10.818;2023-04-15T09:29:55;5.05;;;2.83;;
28988;SDS011;16089;59.952;10.818;2023-04-15T09:32:22;5.90;;;3.28;;
28988;SDS011;16089;59.952;10.818;2023-04-15T09:34:48;6.35;;;3.42;;
28988;SDS011;16089;59.952;10.818;2023-04-15T09:37:15;5.25;;;3.28;;
28988;SDS011;16089;59.952;10.818;2023-04-15T09:39:45;6.40;;;3.53;;
28988;SDS011;16089;59.952;10.818;2023-04-15T09:42:12;6.40;;;3.60;;
28988;SDS011;16089;59.952;10.818;2023-04-15T09:44:40;9.35;;;4.10;;
28988;SDS011;16089;59.952;10.818;2023-04-15T09:47:06;6.40;;;3.63;;
28988;SDS011;16089;59.952;10.818;2023-04-15T09:49:33;5.60;;;3.42;;
28988;SDS011;16089;59.952;10.818;2023-04-15T09:51:59;7.03;;;3.70;;
28988;SDS011;16089;59.952;10.818;2023-04-15T09:54:31;7.25;;;3.90;;
28988;SDS011;16089;59.952;10.818;2023-04-15T09:57:03;7.13;;;4.00;;
28988;SDS011;16089;59.952;10.818;2023-04-15T09:59:30;7.00;;;3.75;;
28988;SDS011;16089;59.952;10.818;2023-04-15T10:01:58;7.50;;;3.72;;
28988;SDS011;16089;59.952;10.818;2023-04-15T10:04:24;11.15;;;3.95;;
28988;SDS011;16089;59.952;10.818;2023-04-15T10:06:52;6.95;;;4.15;;
28988;SDS011;16089;59.952;10.818;2023-04-15T10:09:18;8.10;;;4.03;;
28988;SDS011;16089;59.952;10.818;2023-04-15T10:11:45;6.50;;;3.50;;
28988;SDS011;16089;59.952;10.818;2023-04-15T10:14:13;6.57;;;3.70;;
28988;SDS011;16089;59.952;10.818;2023-04-15T10:16:41;6.18;;;3.28;;
28988;SDS011;16089;59.952;10.818;2023-04-15T10:19:14;6.03;;;3.63;;
28988;SDS011;16089;59.952;10.818;2023-04-15T10:21:41;6.70;;;3.75;;
28988;SDS011;16089;59.952;10.818;2023-04-15T10:24:09;8.00;;;3.58;;
28988;SDS011;16089;59.952;10.818;2023-04-15T10:26:35;6.88;;;3.58;;
28988;SDS011;16089;59.952;10.818;2023-04-15T10:29:01;7.28;;;4.05;;
28988;SDS011;16089;59.952;10.818;2023-04-15T10:31:28;8.35;;;4.47;;
28988;SDS011;16089;59.952;10.818;2023-04-15T10:33:55;7.65;;;4.60;;
28988;SDS011;16089;59.952;10.818;2023-04-15T10:36:23;10.27;;;4.53;;
28988;SDS011;16089;59.952;10.818;2023-04-15T10:38:50;8.52;;;4.70;;
28988;SDS011;16089;59.952;10.818;2023-04-15T10:41:18;9.43;;;4.68;;
28988;SDS011;16089;59.952;10.818;2023-04-15T10:43:45;8.45;;;4.40;;
28988;SDS011;16089;59.952;10.818;2023-04-15T10:46:13;8.63;;;4.93;;
28988;SDS011;16089;59.952;10.818;2023-04-15T10:48:45;9.13;;;4.05;;
28988;SDS011;16089;59.952;10.818;2023-04-15T10:51:12;8.60;;;4.65;;
28988;SDS011;16089;59.952;10.818;2023-04-15T10:53:40;10.70;;;4.90;;
28988;SDS011;16089;59.952;10.818;2023-04-15T10:56:08;10.90;;;6.03;;
28988;SDS011;16089;59.952;10.818;2023-04-15T10:58:39;9.90;;;5.45;;
28988;SDS011;16089;59.952;10.818;2023-04-15T11:01:06;11.02;;;5.80;;
28988;SDS011;16089;59.952;10.818;2023-04-15T11:03:36;9.00;;;5.28;;
28988;SDS011;16089;59.952;10.818;2023-04-15T11:06:03;12.35;;;5.82;;
28988;SDS011;16089;59.952;10.818;2023-04-15T11:11:16;7.30;;;4.50;;
28988;SDS011;16089;59.952;10.818;2023-04-15T11:13:46;11.75;;;5.65;;
28988;SDS011;16089;59.952;10.818;2023-04-15T11:16:12;12.82;;;5.75;;
28988;SDS011;16089;59.952;10.818;2023-04-15T11:18:39;10.95;;;5.65;;
28988;SDS011;16089;59.952;10.818;2023-04-15T11:21:06;11.18;;;5.90;;
28988;SDS011;16089;59.952;10.818;2023-04-15T11:23:34;13.07;;;5.85;;
28988;SDS011;16089;59.952;10.818;2023-04-15T11:26:01;11.55;;;5.35;;
28988;SDS011;16089;59.952;10.818;2023-04-15T11:28:31;8.60;;;4.85;;
28988;SDS011;16089;59.952;10.818;2023-04-15T11:31:05;10.25;;;5.43;;
28988;SDS011;16089;59.952;10.818;2023-04-15T11:33:32;10.07;;;5.35;;
28988;SDS011;16089;59.952;10.818;2023-04-15T11:35:59;11.50;;;5.05;;
28988;SDS011;16089;59.952;10.818;2023-04-15T11:38:26;9.40;;;5.07;;
28988;SDS011;16089;59.952;10.818;2023-04-15T11:40:52;11.50;;;5.07;;
28988;SDS011;16089;59.952;10.818;2023-04-15T11:43:20;9.18;;;5.00;;
28988;SDS011;16089;59.952;10.818;2023-04-15T11:45:48;9.90;;;5.10;;
28988;SDS011;16089;59.952;10.818;2023-04-15T11:48:16;10.07;;;4.65;;
28988;SDS011;16089;59.952;10.818;2023-04-15T11:50:42;7.95;;;4.57;;
28988;SDS011;16089;59.952;10.818;2023-04-15T11:53:10;8.77;;;4.68;;
28988;SDS011;16089;59.952;10.818;2023-04-15T11:55:40;8.95;;;4.68;;
28988;SDS011;16089;59.952;10.818;2023-04-15T11:58:08;10.75;;;5.53;;
28988;SDS011;16089;59.952;10.818;2023-04-15T12:00:35;9.70;;;5.07;;
28988;SDS011;16089;59.952;10.818;2023-04-15T12:03:13;10.10;;;5.00;;
28988;SDS011;16089;59.952;10.818;2023-04-15T12:08:24;11.57;;;5.03;;
28988;SDS011;16089;59.952;10.818;2023-04-15T12:10:51;9.88;;;5.30;;
28988;SDS011;16089;59.952;10.818;2023-04-15T12:13:23;9.77;;;4.97;;
28988;SDS011;16089;59.952;10.818;2023-04-15T12:15:54;8.00;;;4.93;;
28988;SDS011;16089;59.952;10.818;2023-04-15T12:18:22;10.07;;;5.10;;
28988;SDS011;16089;59.952;10.818;2023-04-15T12:20:50;9.27;;;4.70;;
28988;SDS011;16089;59.952;10.818;2023-04-15T12:23:18;10.63;;;4.85;;
28988;SDS011;16089;59.952;10.818;2023-04-15T12:25:49;9.88;;;4.95;;
28988;SDS011;16089;59.952;10.818;2023-04-15T12:28:16;12.73;;;5.05;;
28988;SDS011;16089;59.952;10.818;2023-04-15T12:30:47;8.20;;;4.85;;
28988;SDS011;16089;59.952;10.818;2023-04-15T12:33:14;9.18;;;4.93;;
28988;SDS011;16089;59.952;10.818;2023-04-15T12:35:41;8.77;;;4.50;;
28988;SDS011;16089;59.952;10.818;2023-04-15T12:38:08;10.75;;;5.47;;
28988;SDS011;16089;59.952;10.818;2023-04-15T12:40:34;13.05;;;4.95;;
28988;SDS011;16089;59.952;10.818;2023-04-15T12:43:01;10.25;;;4.70;;
28988;SDS011;16089;59.952;10.818;2023-04-15T12:45:27;8.57;;;4.75;;
28988;SDS011;16089;59.952;10.818;2023-04-15T12:47:53;12.35;;;4.70;;
28988;SDS011;16089;59.952;10.818;2023-04-15T12:50:20;8.90;;;4.85;;
28988;SDS011;16089;59.952;10.818;2023-04-15T12:52:47;9.48;;;5.10;;
28988;SDS011;16089;59.952;10.818;2023-04-15T12:55:16;9.75;;;4.65;;
28988;SDS011;16089;59.952;10.818;2023-04-15T12:57:43;11.30;;;5.07;;
28988;SDS011;16089;59.952;10.818;2023-04-15T13:00:09;9.55;;;4.70;;
28988;SDS011;16089;59.952;10.818;2023-04-15T13:02:36;9.32;;;5.13;;
28988;SDS011;16089;59.952;10.818;2023-04-15T13:05:02;9.93;;;4.55;;
28988;SDS011;16089;59.952;10.818;2023-04-15T13:07:29;9.40;;;4.93;;
28988;SDS011;16089;59.952;10.818;2023-04-15T13:09:56;10.15;;;5.10;;
28988;SDS011;16089;59.952;10.818;2023-04-15T13:12:23;9.48;;;4.78;;
28988;SDS011;16089;59.952;10.818;2023-04-15T13:14:49;10.27;;;5.05;;
28988;SDS011;16089;59.952;10.818;2023-04-15T13:17:16;11.02;;;4.63;;
28988;SDS011;16089;59.952;10.818;2023-04-15T13:19:44;10.45;;;4.88;;
28988;SDS011;16089;59.952;10.818;2023-04-15T13:22:10;10.15;;;4.82;;
28988;SDS011;16089;59.952;10.818;2023-04-15T13:24:38;10.40;;;5.05;;
28988;SDS011;16089;59.952;10.818;2023-04-15T13:27:06;11.93;;;4.65;;
28988;SDS011;16089;59.952;10.818;2023-04-15T13:29:33;9.73;;;5.20;;
28988;SDS011;16089;59.952;10.818;2023-04-15T13:31:59;9.95;;;4.78;;
28988;SDS011;16089;59.952;10.818;2023-04-15T13:34:25;9.55;;;4.72;;
28988;SDS011;16089;59.952;10.818;2023-04-15T13:36:52;9.32;;;4.63;;
28988;SDS011;16089;59.952;10.818;2023-04-15T13:39:18;8.63;;;4.32;;
28988;SDS011;16089;59.952;10.818;2023-04-15T13:41:44;7.57;;;4.38;;
28988;SDS011;16089;59.952;10.818;2023-04-15T13:44:13;12.07;;;5.25;;
28988;SDS011;16089;59.952;10.818;2023-04-15T13:46:40;10.05;;;4.78;;
28988;SDS011;16089;59.952;10.818;2023-04-15T13:49:06;9.38;;;3.63;;
28988;SDS011;16089;59.952;10.818;2023-04-15T13:51:33;9.20;;;4.47;;
28988;SDS011;16089;59.952;10.818;2023-04-15T13:54:00;9.50;;;4.40;;
28988;SDS011;16089;59.952;10.818;2023-04-15T13:56:27;10.77;;;4.70;;
28988;SDS011;16089;59.952;10.818;2023-04-15T13:58:54;9.75;;;4.47;;
28988;SDS011;16089;59.952;10.818;2023-04-15T14:01:24;9.05;;;4.57;;
28988;SDS011;16089;59.952;10.818;2023-04-15T14:03:52;10.73;;;4.95;;
28988;SDS011;16089;59.952;10.818;2023-04-15T14:06:18;8.43;;;4.30;;
28988;SDS011;16089;59.952;10.818;2023-04-15T14:08:45;27.48;;;6.50;;
28988;SDS011;16089;59.952;10.818;2023-04-15T14:11:11;29.98;;;8.13;;
28988;SDS011;16089;59.952;10.818;2023-04-15T14:13:40;13.40;;;5.40;;
28988;SDS011;16089;59.952;10.818;2023-04-15T14:16:07;11.57;;;4.70;;
28988;SDS011;16089;59.952;10.818;2023-04-15T14:18:35;9.07;;;4.15;;
28988;SDS011;16089;59.952;10.818;2023-04-15T14:21:02;9.23;;;4.20;;
28988;SDS011;16089;59.952;10.818;2023-04-15T14:23:28;10.55;;;4.38;;
28988;SDS011;16089;59.952;10.818;2023-04-15T14:25:55;7.05;;;4.05;;
28988;SDS011;16089;59.952;10.818;2023-04-15T14:28:21;8.80;;;4.20;;
28988;SDS011;16089;59.952;10.818;2023-04-15T14:30:48;12.00;;;4.93;;
28988;SDS011;16089;59.952;10.818;2023-04-15T14:33:14;11.88;;;4.57;;
28988;SDS011;16089;59.952;10.818;2023-04-15T14:35:42;8.02;;;4.20;;